Time;durP1;ratioP1;P1;durP2;ratioP2;P2;SDS_P1;SDS_P2;PMS_P1;PMS_P2;Temp;Humidity;BMP_temperature;BMP_pressure;BME280_temperature;BME280_humidity;BME280_pressure;Samples;Min_cycle;Max_cycle;Signal;HPM_P1;HPM_P2
2024/01/02 00:01:27;;;;;;;;;;;;;;;6.48;100.00;99977.81;5013754;28;20437;-68
2024/01/02 00:03:53;;;;;;;;;;;;;;;6.49;100.00;99977.66;5014708;28;20004;-67
2024/01/02 00:06:18;;;;;;;;;;;;;;;6.51;100.00;99965.13;5017464;28;19925;-67
2024/01/02 00:08:43;;;;;;;;;;;;;;;6.51;100.00;99957.19;5020461;28;19920;-67
2024/01/02 00:11:09;;;;;;;;;;;;;;;6.51;100.00;99951.94;5017470;28;20311;-67
2024/01/02 00:13:34;;;;;;;;;;;;;;;6.54;100.00;99956.03;5017377;28;19921;-67
2024/01/02 00:15:59;;;;;;;;;;;;;;;6.56;100.00;99950.59;5018241;28;19925;-66
2024/01/02 00:18:25;;;;;;;;;;;;;;;6.58;100.00;99933.63;5014891;28;20413;-66
2024/01/02 00:20:50;;;;;;;;;;;;;;;6.57;100.00;99928.50;5008319;28;20216;-69
2024/01/02 00:23:16;;;;;;;;;;;;;;;6.58;100.00;99903.78;5011765;28;20382;-67
2024/01/02 00:25:42;;;;;;;;;;;;;;;6.59;100.00;99897.50;5016091;28;19953;-67
2024/01/02 00:28:07;;;;;;;;;;;;;;;6.59;100.00;99893.06;5014334;28;20007;-67
2024/01/02 00:30:34;;;;;;;;;;;;;;;6.64;100.00;99890.72;5012067;28;20610;-68
2024/01/02 00:33:03;;;;;;;;;;;;;;;6.63;100.00;99875.06;5010106;28;19972;-66
2024/01/02 00:35:28;;;;;;;;;;;;;;;6.62;100.00;99870.78;5012317;28;19960;-67
2024/01/02 00:37:53;;;;;;;;;;;;;;;6.63;100.00;99853.97;5016470;28;19965;-67
2024/01/02 00:40:18;;;;;;;;;;;;;;;6.69;100.00;99834.84;5008594;28;20008;-68
2024/01/02 00:42:44;;;;;;;;;;;;;;;6.66;100.00;99816.72;5011577;28;20036;-69
2024/01/02 00:45:09;;;;;;;;;;;;;;;6.68;100.00;99798.91;5015300;28;19944;-66
2024/01/02 00:47:34;;;;;;;;;;;;;;;6.70;100.00;99795.09;5012165;28;20070;-68
2024/01/02 00:49:59;;;;;;;;;;;;;;;6.70;100.00;99784.56;5009877;28;20723;-68
2024/01/02 00:52:25;;;;;;;;;;;;;;;6.71;100.00;99772.19;5005141;28;19983;-67
2024/01/02 00:54:51;;;;;;;;;;;;;;;6.72;100.00;99771.19;5010649;28;19960;-67
2024/01/02 00:57:16;;;;;;;;;;;;;;;6.73;100.00;99754.38;5010338;28;19931;-66
2024/01/02 00:59:42;;;;;;;;;;;;;;;6.77;100.00;99731.91;5015956;28;19922;-66
2024/01/02 01:02:07;;;;;;;;;;;;;;;6.76;100.00;99738.19;5017655;28;19952;-67
2024/01/02 01:04:32;;;;;;;;;;;;;;;6.77;100.00;99721.34;5016572;28;20018;-67
2024/01/02 01:06:57;;;;;;;;;;;;;;;6.77;100.00;99710.81;5015473;28;19917;-67
2024/01/02 01:09:23;;;;;;;;;;;;;;;6.77;100.00;99703.72;5008830;28;19921;-67
2024/01/02 01:11:48;;;;;;;;;;;;;;;6.80;100.00;99697.25;5011751;28;19921;-66
2024/01/02 01:14:14;;;;;;;;;;;;;;;6.82;100.00;99684.72;5009999;28;19917;-69
2024/01/02 01:16:39;;;;;;;;;;;;;;;6.81;100.00;99678.63;5020833;28;19943;-67
2024/01/02 01:19:04;;;;;;;;;;;;;;;6.83;100.00;99681.06;5015827;28;19928;-67
2024/01/02 01:21:29;;;;;;;;;;;;;;;6.86;100.00;99664.06;5012019;28;19925;-67
2024/01/02 01:23:55;;;;;;;;;;;;;;;6.86;100.00;99664.88;5011546;28;19971;-68
2024/01/02 01:26:20;;;;;;;;;;;;;;;6.91;100.00;99645.88;5013307;28;19924;-66
2024/01/02 01:28:45;;;;;;;;;;;;;;;6.91;100.00;99638.78;5014969;28;19948;-67
2024/01/02 01:31:10;;;;;;;;;;;;;;;6.89;100.00;99624.13;5014709;28;19925;-66
2024/01/02 01:33:35;;;;;;;;;;;;;;;6.89;100.00;99617.03;5013877;28;19921;-67
2024/01/02 01:36:01;;;;;;;;;;;;;;;6.89;100.00;99606.47;5012354;28;19925;-67
2024/01/02 01:38:26;;;;;;;;;;;;;;;6.88;100.00;99591.66;5007470;28;19921;-66
2024/01/02 01:40:51;;;;;;;;;;;;;;;6.88;100.00;99589.00;5007508;28;20576;-68
2024/01/02 01:43:17;;;;;;;;;;;;;;;6.89;100.00;99574.81;5011677;28;19937;-67
2024/01/02 01:45:42;;;;;;;;;;;;;;;6.90;100.00;99576.44;5012717;28;19991;-67
2024/01/02 01:48:09;;;;;;;;;;;;;;;6.89;100.00;99568.72;5009754;28;19918;-67
2024/01/02 01:50:34;;;;;;;;;;;;;;;6.89;100.00;99551.06;5009590;28;19924;-67
2024/01/02 01:53:01;;;;;;;;;;;;;;;6.90;100.00;99533.41;5016633;28;19921;-67
2024/01/02 01:55:26;;;;;;;;;;;;;;;6.92;100.00;99513.75;5013540;28;20406;-67
2024/01/02 01:57:52;;;;;;;;;;;;;;;6.93;100.00;99514.56;5010707;28;19921;-67
2024/01/02 02:00:18;;;;;;;;;;;;;;;6.95;100.00;99515.25;5012237;28;19925;-68
2024/01/02 02:02:43;;;;;;;;;;;;;;;6.97;100.00;99500.03;5012849;28;20577;-66
2024/01/02 02:05:10;;;;;;;;;;;;;;;6.96;100.00;99504.50;5018590;28;20456;-67
2024/01/02 02:07:40;;;;;;;;;;;;;;;6.96;100.00;99499.22;5015746;28;19917;-67
2024/01/02 02:10:05;;;;;;;;;;;;;;;6.98;100.00;99491.13;5019043;28;19921;-67
2024/01/02 02:12:31;;;;;;;;;;;;;;;6.96;100.00;99496.59;5014909;28;19976;-67
2024/01/02 02:14:56;;;;;;;;;;;;;;;6.99;100.00;99475.09;5009558;28;20684;-67
2024/01/02 02:17:22;;;;;;;;;;;;;;;7.00;100.00;99471.47;5016585;28;20015;-67
2024/01/02 02:19:47;;;;;;;;;;;;;;;7.00;100.00;99460.09;5011735;28;19926;-67
2024/01/02 02:22:13;;;;;;;;;;;;;;;7.00;100.00;99454.81;5016313;28;19929;-67
2024/01/02 02:24:38;;;;;;;;;;;;;;;7.00;100.00;99444.25;5010621;28;19922;-67
2024/01/02 02:27:05;;;;;;;;;;;;;;;7.00;100.00;99439.78;5014379;28;19925;-67
2024/01/02 02:29:31;;;;;;;;;;;;;;;7.04;100.00;99429.69;5012094;28;19917;-67
2024/01/02 02:31:58;;;;;;;;;;;;;;;7.03;100.00;99418.31;5012967;28;20448;-67
2024/01/02 02:34:23;;;;;;;;;;;;;;;7.03;100.00;99407.75;5014385;28;19921;-67
2024/01/02 02:36:48;;;;;;;;;;;;;;;7.03;100.00;99406.94;5016940;28;19928;-67
2024/01/02 02:39:13;;;;;;;;;;;;;;;7.05;100.00;99397.00;5013473;28;20035;-67
2024/01/02 02:41:39;;;;;;;;;;;;;;;7.03;100.00;99386.63;5012189;28;19921;-67
2024/01/02 02:44:04;;;;;;;;;;;;;;;7.05;100.00;99373.25;5011384;28;19925;-67
2024/01/02 02:46:29;;;;;;;;;;;;;;;7.08;100.00;99368.44;5013258;28;19921;-67
2024/01/02 02:48:54;;;;;;;;;;;;;;;7.08;100.00;99364.97;5022983;28;19925;-69
2024/01/02 02:51:20;;;;;;;;;;;;;;;7.09;100.00;99348.13;5013511;28;20019;-67
2024/01/02 02:53:45;;;;;;;;;;;;;;;7.11;100.00;99346.94;5010389;28;19925;-67
2024/01/02 02:56:19;;;;;;;;;;;;;;;7.10;100.00;99324.19;5013773;28;20306;-67
2024/01/02 02:58:44;;;;;;;;;;;;;;;7.09;100.00;99313.81;5012631;28;19929;-67
2024/01/02 03:01:19;;;;;;;;;;;;;;;7.10;100.00;99303.06;5018035;28;19924;-68
2024/01/02 03:03:44;;;;;;;;;;;;;;;7.11;100.00;99288.88;5010920;28;20016;-68
2024/01/02 03:06:09;;;;;;;;;;;;;;;7.11;100.00;99294.16;5010370;28;19921;-68
2024/01/02 03:08:35;;;;;;;;;;;;;;;7.12;100.00;99289.69;5017412;28;19927;-69
2024/01/02 03:11:00;;;;;;;;;;;;;;;7.19;100.00;99284.47;5017990;28;19961;-67
2024/01/02 03:13:25;;;;;;;;;;;;;;;7.16;100.00;99259.25;5021162;28;19920;-67
2024/01/02 03:15:50;;;;;;;;;;;;;;;7.15;100.00;99247.88;5008699;28;19922;-68
2024/01/02 03:18:16;;;;;;;;;;;;;;;7.16;100.00;99232.88;5021889;28;19921;-67
2024/01/02 03:20:42;;;;;;;;;;;;;;;7.18;100.00;99235.31;5025446;28;19982;-68
2024/01/02 03:23:07;;;;;;;;;;;;;;;7.18;100.00;99222.13;5015841;28;19980;-67
2024/01/02 03:25:33;;;;;;;;;;;;;;;7.21;100.00;99211.19;5013686;28;20386;-68
2024/01/02 03:27:58;;;;;;;;;;;;;;;7.20;100.00;99197.16;5015139;28;20464;-67
2024/01/02 03:30:24;;;;;;;;;;;;;;;7.21;100.00;99190.88;5020356;28;19924;-68
2024/01/02 03:32:49;;;;;;;;;;;;;;;7.27;100.00;99184.03;5018713;28;19955;-67
2024/01/02 03:35:14;;;;;;;;;;;;;;;7.28;100.00;99178.56;5019540;28;19928;-67
2024/01/02 03:37:39;;;;;;;;;;;;;;;7.27;100.00;99176.13;5019675;28;19921;-67
2024/01/02 03:40:05;;;;;;;;;;;;;;;7.30;100.00;99181.03;5019968;28;19924;-67
2024/01/02 03:42:30;;;;;;;;;;;;;;;7.30;100.00;99173.09;5007416;28;19922;-68
2024/01/02 03:44:55;;;;;;;;;;;;;;;7.26;100.00;99163.94;5011079;28;19921;-67
2024/01/02 03:47:20;;;;;;;;;;;;;;;7.28;100.00;99160.09;5016866;28;20542;-68
2024/01/02 03:49:46;;;;;;;;;;;;;;;7.33;100.00;99156.88;5019864;28;20036;-69
2024/01/02 03:52:11;;;;;;;;;;;;;;;7.34;100.00;99151.41;5011098;28;19925;-68
2024/01/02 03:54:36;;;;;;;;;;;;;;;7.40;100.00;99168.28;5011951;28;19928;-67
2024/01/02 03:57:01;;;;;;;;;;;;;;;7.39;100.00;99146.34;5018280;28;19967;-68
2024/01/02 03:59:26;;;;;;;;;;;;;;;7.42;100.00;99129.31;5007950;28;19936;-68
2024/01/02 04:01:52;;;;;;;;;;;;;;;7.42;100.00;99135.41;5013339;28;19966;-67
2024/01/02 04:04:17;;;;;;;;;;;;;;;7.47;100.00;99126.91;5017443;28;20004;-67
2024/01/02 04:06:42;;;;;;;;;;;;;;;7.52;100.00;99137.72;5012514;28;19928;-68
2024/01/02 04:09:08;;;;;;;;;;;;;;;7.55;100.00;99137.34;5016392;28;19925;-68
2024/01/02 04:11:33;;;;;;;;;;;;;;;7.54;100.00;99135.72;5012249;28;19947;-68
2024/01/02 04:13:59;;;;;;;;;;;;;;;7.60;100.00;99115.63;5016017;28;20024;-68
2024/01/02 04:16:24;;;;;;;;;;;;;;;7.64;100.00;99115.03;5016545;28;20062;-67
2024/01/02 04:18:50;;;;;;;;;;;;;;;7.68;100.00;99116.28;5010176;28;19921;-67
2024/01/02 04:21:15;;;;;;;;;;;;;;;7.73;100.00;99108.56;5017748;28;19925;-68
2024/01/02 04:23:40;;;;;;;;;;;;;;;7.78;100.00;99106.16;5017029;28;19964;-68
2024/01/02 04:26:06;;;;;;;;;;;;;;;7.81;100.00;99097.06;5017414;28;19991;-67
2024/01/02 04:28:31;;;;;;;;;;;;;;;7.79;100.00;99106.97;5016152;28;20543;-67
2024/01/02 04:30:56;;;;;;;;;;;;;;;7.87;100.00;99100.75;5019967;28;19929;-69
2024/01/02 04:33:21;;;;;;;;;;;;;;;7.89;100.00;99099.53;5014814;28;19925;-67
2024/01/02 04:35:46;;;;;;;;;;;;;;;7.95;100.00;99106.66;5018472;28;20528;-68
2024/01/02 04:38:12;;;;;;;;;;;;;;;7.98;100.00;99100.16;5017250;28;19921;-67
2024/01/02 04:40:37;;;;;;;;;;;;;;;8.01;100.00;99094.50;5018587;28;19929;-67
2024/01/02 04:43:02;;;;;;;;;;;;;;;8.04;100.00;99097.56;5013554;28;20317;-67
2024/01/02 04:45:27;;;;;;;;;;;;;;;8.10;100.00;99089.88;5020002;28;19953;-68
2024/01/02 04:47:53;;;;;;;;;;;;;;;8.12;100.00;99088.66;5013875;28;19921;-69
2024/01/02 04:50:18;;;;;;;;;;;;;;;8.15;100.00;99085.63;5009900;28;19948;-68
2024/01/02 04:52:43;;;;;;;;;;;;;;;8.17;100.00;99094.16;5008137;28;19936;-68
2024/01/02 04:55:08;;;;;;;;;;;;;;;8.20;100.00;99085.84;5017486;28;19984;-67
2024/01/02 04:57:34;;;;;;;;;;;;;;;8.23;100.00;99080.16;5013341;28;19943;-67
2024/01/02 04:59:59;;;;;;;;;;;;;;;8.29;100.00;99084.63;5019905;28;19921;-67
2024/01/02 05:02:24;;;;;;;;;;;;;;;8.33;100.00;99088.53;5016304;28;20006;-68
2024/01/02 05:04:50;;;;;;;;;;;;;;;8.39;100.00;99081.66;5013586;28;20390;-68
2024/01/02 05:07:15;;;;;;;;;;;;;;;8.44;100.00;99086.34;5016939;28;20279;-67
2024/01/02 05:09:40;;;;;;;;;;;;;;;8.45;100.00;99088.78;5020270;28;19921;-67
2024/01/02 05:12:05;;;;;;;;;;;;;;;8.51;100.00;99079.25;5018872;28;19936;-67
2024/01/02 05:14:30;;;;;;;;;;;;;;;8.53;100.00;99077.19;5013295;28;19923;-68
2024/01/02 05:16:56;;;;;;;;;;;;;;;8.61;100.00;99091.06;5016822;28;19924;-68
2024/01/02 05:19:21;;;;;;;;;;;;;;;8.65;100.00;99080.88;5015172;28;19928;-68
2024/01/02 05:21:46;;;;;;;;;;;;;;;8.68;100.00;99091.91;5016095;28;19934;-67
2024/01/02 05:24:11;;;;;;;;;;;;;;;8.74;100.00;99095.56;5017435;28;20428;-68
2024/01/02 05:26:36;;;;;;;;;;;;;;;8.82;100.00;99078.66;5007834;28;20002;-68
2024/01/02 05:29:02;;;;;;;;;;;;;;;8.85;100.00;99075.63;5012827;28;19927;-69
2024/01/02 05:31:27;;;;;;;;;;;;;;;8.93;100.00;99068.28;5012855;28;19929;-67
2024/01/02 05:33:52;;;;;;;;;;;;;;;9.02;100.00;99091.94;5014366;28;19936;-67
2024/01/02 05:36:17;;;;;;;;;;;;;;;9.07;100.00;99100.06;5009464;28;19929;-67
2024/01/02 05:38:42;;;;;;;;;;;;;;;9.13;100.00;99086.00;5018904;28;19949;-68
2024/01/02 05:41:08;;;;;;;;;;;;;;;9.16;100.00;99081.13;5012386;28;20158;-68
2024/01/02 05:43:34;;;;;;;;;;;;;;;9.18;100.00;99086.22;5015049;28;20191;-67
2024/01/02 05:45:59;;;;;;;;;;;;;;;9.19;100.00;99093.94;5007586;28;20653;-68
2024/01/02 05:48:24;;;;;;;;;;;;;;;9.24;100.00;99088.03;5010843;28;19917;-68
2024/01/02 05:50:49;;;;;;;;;;;;;;;9.28;100.00;99090.09;5008293;28;19922;-68
2024/01/02 05:53:15;;;;;;;;;;;;;;;9.33;100.00;99110.66;5004978;28;19921;-68
2024/01/02 05:55:40;;;;;;;;;;;;;;;9.38;100.00;99096.81;5007754;28;22320;-68
2024/01/02 05:58:05;;;;;;;;;;;;;;;9.40;100.00;99102.72;5004153;28;20672;-68
2024/01/02 06:00:30;;;;;;;;;;;;;;;9.45;100.00;99106.38;5004824;28;19917;-69
2024/01/02 06:02:55;;;;;;;;;;;;;;;9.49;100.00;99107.56;5003877;28;20060;-68
2024/01/02 06:05:21;;;;;;;;;;;;;;;9.52;100.00;99115.13;5008097;28;20260;-68
2024/01/02 06:07:46;;;;;;;;;;;;;;;9.58;100.00;99124.09;5004436;28;19917;-68
2024/01/02 06:10:11;;;;;;;;;;;;;;;9.61;100.00;99132.44;5008269;28;19939;-68
2024/01/02 06:12:36;;;;;;;;;;;;;;;9.67;100.00;99145.88;5011446;28;19933;-68
2024/01/02 06:15:02;;;;;;;;;;;;;;;9.65;100.00;99145.28;5015344;28;20043;-68
2024/01/02 06:17:28;;;;;;;;;;;;;;;9.66;100.00;99141.63;5008734;28;20294;-68
2024/01/02 06:19:53;;;;;;;;;;;;;;;9.68;100.00;99160.78;5010860;28;19948;-67
2024/01/02 06:22:18;;;;;;;;;;;;;;;9.69;100.00;99152.63;5013809;28;19955;-67
2024/01/02 06:24:43;;;;;;;;;;;;;;;9.69;100.00;99146.50;5017856;28;20614;-68
2024/01/02 06:27:09;;;;;;;;;;;;;;;9.71;100.00;99155.06;5011920;28;20375;-67
2024/01/02 06:29:34;;;;;;;;;;;;;;;9.74;100.00;99166.06;5005119;28;19917;-67
2024/01/02 06:31:59;;;;;;;;;;;;;;;9.80;100.00;99169.72;5006105;28;20016;-68
2024/01/02 06:34:24;;;;;;;;;;;;;;;9.80;100.00;99159.13;5008796;28;19964;-67
2024/01/02 06:36:49;;;;;;;;;;;;;;;9.81;100.00;99158.91;5012381;28;19928;-68
2024/01/02 06:39:15;;;;;;;;;;;;;;;9.85;100.00;99177.91;5014173;28;19967;-68
2024/01/02 06:41:41;;;;;;;;;;;;;;;9.85;100.00;99183.19;5012090;28;20031;-67
2024/01/02 06:44:06;;;;;;;;;;;;;;;9.81;100.00;99187.25;5007667;28;19935;-68
2024/01/02 06:46:31;;;;;;;;;;;;;;;9.91;100.00;99209.69;5012668;28;19926;-69
2024/01/02 06:48:56;;;;;;;;;;;;;;;9.99;100.00;99245.78;5023616;28;19968;-70
2024/01/02 06:51:21;;;;;;;;;;;;;;;10.00;100.00;99249.25;5011580;28;20032;-68
2024/01/02 06:53:47;;;;;;;;;;;;;;;10.01;100.00;99257.00;5009092;28;20426;-68
2024/01/02 06:56:12;;;;;;;;;;;;;;;10.03;100.00;99265.56;5010976;28;20430;-68
2024/01/02 06:58:44;;;;;;;;;;;;;;;10.02;100.00;99255.16;5013728;28;20003;-68
2024/01/02 07:01:10;;;;;;;;;;;;;;;10.04;100.00;99263.72;5014015;28;20780;-68
2024/01/02 07:03:35;;;;;;;;;;;;;;;10.08;100.00;99286.16;5016848;28;19943;-68
2024/01/02 07:06:00;;;;;;;;;;;;;;;10.08;100.00;99186.19;5010946;28;19928;-68
2024/01/02 07:08:25;;;;;;;;;;;;;;;10.08;100.00;99174.75;5012701;28;19922;-68
2024/01/02 07:10:51;;;;;;;;;;;;;;;10.09;100.00;99206.38;5012188;28;19964;-68
2024/01/02 07:13:16;;;;;;;;;;;;;;;10.14;100.00;99203.94;5005994;28;19957;-68
2024/01/02 07:15:41;;;;;;;;;;;;;;;10.16;100.00;99207.19;5017886;28;20015;-70
2024/01/02 07:18:06;;;;;;;;;;;;;;;10.16;100.00;99199.25;5020987;28;19917;-69
2024/01/02 07:20:32;;;;;;;;;;;;;;;10.17;100.00;99195.56;5017203;28;20726;-70
2024/01/02 07:22:57;;;;;;;;;;;;;;;10.18;100.00;99191.88;5013824;28;19925;-69
2024/01/02 07:25:22;;;;;;;;;;;;;;;10.20;100.00;99208.44;5013874;28;20024;-69
2024/01/02 07:27:48;;;;;;;;;;;;;;;10.17;100.00;99219.44;5013119;28;20007;-68
2024/01/02 07:30:13;;;;;;;;;;;;;;;10.20;100.00;99227.00;5021744;28;19940;-68
2024/01/02 07:32:38;;;;;;;;;;;;;;;10.28;100.00;99227.81;5018852;28;19948;-68
2024/01/02 07:35:04;;;;;;;;;;;;;;;10.28;100.00;99222.50;5018966;28;19948;-69
2024/01/02 07:37:29;;;;;;;;;;;;;;;10.29;100.00;99224.94;5013150;28;19913;-71
2024/01/02 07:39:55;;;;;;;;;;;;;;;10.32;100.00;99231.66;5016477;28;19995;-70
2024/01/02 07:42:21;;;;;;;;;;;;;;;10.38;100.00;99252.06;5010657;28;19921;-71
2024/01/02 07:44:46;;;;;;;;;;;;;;;10.43;100.00;99254.94;5017804;28;19922;-70
2024/01/02 07:47:11;;;;;;;;;;;;;;;10.43;100.00;99255.75;5014470;28;20027;-71
2024/01/02 07:49:36;;;;;;;;;;;;;;;10.48;100.00;99257.78;5009435;28;20404;-71
2024/01/02 07:52:02;;;;;;;;;;;;;;;10.54;100.00;99267.53;5007971;28;20481;-71
2024/01/02 07:54:27;;;;;;;;;;;;;;;10.51;100.00;99262.66;5014577;28;19925;-69
2024/01/02 07:56:52;;;;;;;;;;;;;;;10.61;100.00;99278.94;5010662;28;20667;-69
2024/01/02 07:59:19;;;;;;;;;;;;;;;10.68;100.00;99268.31;5014808;28;20477;-69
2024/01/02 08:01:45;;;;;;;;;;;;;;;10.76;100.00;99276.06;5007629;28;19917;-69
2024/01/02 08:04:10;;;;;;;;;;;;;;;10.73;100.00;99263.19;5007011;28;19931;-69
2024/01/02 08:06:35;;;;;;;;;;;;;;;10.72;100.00;99266.88;5009077;28;19921;-68
2024/01/02 08:09:01;;;;;;;;;;;;;;;10.74;100.00;99255.03;5006148;28;19956;-69
2024/01/02 08:11:27;;;;;;;;;;;;;;;10.72;100.00;99246.47;5009680;28;19925;-69
2024/01/02 08:13:53;;;;;;;;;;;;;;;10.74;100.00;99251.56;5005478;28;20496;-69
2024/01/02 08:16:18;;;;;;;;;;;;;;;10.72;100.00;99254.44;5006910;28;19921;-69
2024/01/02 08:18:43;;;;;;;;;;;;;;;10.78;100.00;99250.09;5019067;28;19964;-69
2024/01/02 08:21:08;;;;;;;;;;;;;;;10.80;100.00;99267.47;5005609;28;19996;-68
2024/01/02 08:23:35;;;;;;;;;;;;;;;10.80;100.00;99262.16;5007079;28;20032;-69
2024/01/02 08:26:01;;;;;;;;;;;;;;;10.81;100.00;99265.63;5010276;28;19925;-69
2024/01/02 08:28:26;;;;;;;;;;;;;;;10.79;100.00;99265.00;5006443;28;19922;-69
2024/01/02 08:30:52;;;;;;;;;;;;;;;10.78;100.00;99269.50;5006808;28;19917;-69
2024/01/02 08:33:17;;;;;;;;;;;;;;;10.81;100.00;99262.97;5005157;28;19925;-68
2024/01/02 08:35:42;;;;;;;;;;;;;;;10.82;100.00;99257.44;5007222;28;19980;-69
2024/01/02 08:38:08;;;;;;;;;;;;;;;10.88;100.00;99254.97;5013251;28;20578;-69
2024/01/02 08:40:33;;;;;;;;;;;;;;;10.90;100.00;99250.25;5011242;28;19921;-69
2024/01/02 08:42:58;;;;;;;;;;;;;;;10.95;100.00;99245.09;5010393;28;20058;-69
2024/01/02 08:45:25;;;;;;;;;;;;;;;10.94;100.00;99238.16;5008594;28;19922;-70
2024/01/02 08:47:50;;;;;;;;;;;;;;;10.95;100.00;99240.63;5014379;28;20545;-69
2024/01/02 08:50:15;;;;;;;;;;;;;;;10.99;100.00;99238.38;5009343;28;19963;-69
2024/01/02 08:52:40;;;;;;;;;;;;;;;10.99;100.00;99239.19;5011735;28;19917;-70
2024/01/02 08:55:06;;;;;;;;;;;;;;;11.02;100.00;99241.41;5012985;28;19921;-69
2024/01/02 08:57:31;;;;;;;;;;;;;;;11.05;100.00;99240.19;5010975;28;19929;-69
2024/01/02 08:59:57;;;;;;;;;;;;;;;11.09;100.00;99238.72;5008607;28;19921;-69
2024/01/02 09:02:22;;;;;;;;;;;;;;;11.09;100.00;99228.09;5009294;28;19918;-69
2024/01/02 09:04:47;;;;;;;;;;;;;;;11.13;100.00;99227.44;5004280;28;19932;-69
2024/01/02 09:07:12;;;;;;;;;;;;;;;11.10;100.00;99225.22;5005824;28;20012;-69
2024/01/02 09:09:38;;;;;;;;;;;;;;;11.10;100.00;99227.06;5017379;28;20334;-69
2024/01/02 09:12:03;;;;;;;;;;;;;;;11.11;100.00;99208.25;5015272;28;20375;-69
2024/01/02 09:14:29;;;;;;;;;;;;;;;11.10;100.00;99224.41;5022348;28;20426;-69
2024/01/02 09:16:54;;;;;;;;;;;;;;;11.11;100.00;99212.75;5011203;28;19917;-69
2024/01/02 09:19:19;;;;;;;;;;;;;;;11.10;100.00;99219.91;5009329;28;20552;-69
2024/01/02 09:21:44;;;;;;;;;;;;;;;11.08;100.00;99216.66;5014970;28;19921;-70
2024/01/02 09:24:10;;;;;;;;;;;;;;;11.08;100.00;99213.19;5012647;28;19922;-69
2024/01/02 09:26:37;;;;;;;;;;;;;;;11.13;100.00;99200.06;5012598;28;20280;-69
2024/01/02 09:29:02;;;;;;;;;;;;;;;11.14;100.00;99207.81;5012576;28;19928;-69
2024/01/02 09:31:30;;;;;;;;;;;;;;;11.15;100.00;99201.47;5009949;28;19929;-69
2024/01/02 09:33:55;;;;;;;;;;;;;;;11.12;100.00;99193.13;5015853;28;19921;-69
2024/01/02 09:36:21;;;;;;;;;;;;;;;11.14;100.00;99189.22;5014052;28;20444;-69
2024/01/02 09:38:47;;;;;;;;;;;;;;;11.13;100.00;99192.09;5016756;28;19928;-69
2024/01/02 09:41:25;;;;;;;;;;;;;;;11.18;100.00;99190.41;5019755;28;19921;-69
2024/01/02 09:44:16;;;;;;;;;;;;;;;11.21;100.00;99194.47;5012798;28;19921;-69
2024/01/02 09:46:53;;;;;;;;;;;;;;;11.20;100.00;99197.34;5013197;28;19973;-69
2024/01/02 09:49:48;;;;;;;;;;;;;;;11.21;100.00;99198.97;5014574;28;19933;-69
2024/01/02 09:52:19;;;;;;;;;;;;;;;11.18;100.00;99205.53;5001888;28;19947;-69
2024/01/02 09:55:03;;;;;;;;;;;;;;;11.13;100.00;99206.19;5013573;28;20027;-69
2024/01/02 09:57:35;;;;;;;;;;;;;;;11.17;100.00;99217.19;5015794;28;19957;-69
2024/01/02 10:00:05;;;;;;;;;;;;;;;11.12;100.00;99207.22;5008387;28;19983;-69
2024/01/02 10:02:40;;;;;;;;;;;;;;;11.14;100.00;99205.16;5015639;28;19917;-68
2024/01/02 10:05:15;;;;;;;;;;;;;;;11.11;100.00;99204.78;5011439;28;19973;-69
2024/01/02 10:08:01;;;;;;;;;;;;;;;11.07;100.00;99212.38;5011893;28;19921;-69
2024/01/02 10:10:45;;;;;;;;;;;;;;;10.97;100.00;99212.00;5019468;28;19921;-69
2024/01/02 10:13:10;;;;;;;;;;;;;;;10.96;100.00;99207.72;5006797;28;20048;-68
2024/01/02 10:15:54;;;;;;;;;;;;;;;10.93;100.00;99209.97;5017609;28;20693;-69
2024/01/02 10:18:26;;;;;;;;;;;;;;;10.83;100.00;99190.03;5012950;28;20228;-69
2024/01/02 10:20:57;;;;;;;;;;;;;;;10.79;100.00;99191.47;5009662;28;19925;-69
2024/01/02 10:23:36;;;;;;;;;;;;;;;10.81;100.00;99192.06;5005801;28;19932;-68
2024/01/02 10:26:03;;;;;;;;;;;;;;;10.81;100.00;99188.59;5005015;28;19917;-69
2024/01/02 10:28:28;;;;;;;;;;;;;;;10.88;100.00;99194.69;5009221;28;19941;-69
2024/01/02 10:30:53;;;;;;;;;;;;;;;10.90;100.00;99182.00;5004061;28;19917;-69
2024/01/02 10:33:38;;;;;;;;;;;;;;;10.94;100.00;99179.75;5006670;28;19925;-71
2024/01/02 10:36:04;;;;;;;;;;;;;;;10.99;100.00;99174.63;5010572;28;19921;-71
2024/01/02 10:38:33;;;;;;;;;;;;;;;11.03;100.00;99170.50;5007949;28;20027;-71
2024/01/02 10:41:11;;;;;;;;;;;;;;;11.08;100.00;99154.75;5004053;28;19925;-71
2024/01/02 10:43:46;;;;;;;;;;;;;;;11.08;100.00;99160.88;5008647;28;19917;-71
2024/01/02 10:46:29;;;;;;;;;;;;;;;11.10;100.00;99165.97;5006253;28;20429;-71
2024/01/02 10:49:00;;;;;;;;;;;;;;;11.13;100.00;99157.56;5010527;28;19933;-71
2024/01/02 10:51:38;;;;;;;;;;;;;;;11.13;100.00;99154.91;5020108;28;19925;-70
2024/01/02 10:54:07;;;;;;;;;;;;;;;11.14;100.00;99157.34;5015914;28;20010;-71
2024/01/02 10:56:49;;;;;;;;;;;;;;;11.13;100.00;99146.94;5006175;28;19921;-71
2024/01/02 10:59:30;;;;;;;;;;;;;;;11.11;100.00;99151.66;5010773;28;19928;-71
2024/01/02 11:02:03;;;;;;;;;;;;;;;11.13;100.00;99146.94;5010000;28;19995;-71
2024/01/02 11:04:34;;;;;;;;;;;;;;;11.11;100.00;99154.31;5003648;28;19983;-71
2024/01/02 11:07:06;;;;;;;;;;;;;;;11.06;100.00;99149.63;5008391;28;19924;-71
2024/01/02 11:09:47;;;;;;;;;;;;;;;11.04;100.00;99132.28;5013495;28;19914;-71
2024/01/02 11:12:14;;;;;;;;;;;;;;;11.02;100.00;99131.69;5004313;28;19940;-71
2024/01/02 11:14:40;;;;;;;;;;;;;;;11.03;100.00;99134.13;5010643;28;19928;-72
2024/01/02 11:17:06;;;;;;;;;;;;;;;10.96;100.00;99136.00;5009643;28;19917;-71
2024/01/02 11:19:39;;;;;;;;;;;;;;;10.89;100.00;99114.00;5017984;28;19921;-71
2024/01/02 11:22:08;;;;;;;;;;;;;;;10.88;100.00;99114.22;5015027;28;19921;-70
2024/01/02 11:24:34;;;;;;;;;;;;;;;10.89;100.00;99111.34;5010800;28;19928;-71
2024/01/02 11:27:03;;;;;;;;;;;;;;;10.89;100.00;99097.25;5011619;28;20707;-71
2024/01/02 11:29:31;;;;;;;;;;;;;;;10.87;100.00;99100.13;5009288;28;19926;-71
2024/01/02 11:31:57;;;;;;;;;;;;;;;10.88;100.00;99103.59;5007582;28;20032;-71
2024/01/02 11:34:49;;;;;;;;;;;;;;;10.84;100.00;99096.06;5009806;28;20343;-71
2024/01/02 11:37:35;;;;;;;;;;;;;;;10.76;100.00;99090.19;5006646;28;19921;-72
2024/01/02 11:40:07;;;;;;;;;;;;;;;10.75;100.00;99092.03;5008919;28;19940;-71
2024/01/02 11:42:32;;;;;;;;;;;;;;;10.77;100.00;99082.00;5016235;28;19922;-71
2024/01/02 11:45:16;;;;;;;;;;;;;;;10.77;100.00;99075.88;5015239;28;19913;-71
2024/01/02 11:47:42;;;;;;;;;;;;;;;10.73;100.00;99080.00;5009147;28;19924;-71
2024/01/02 11:50:08;;;;;;;;;;;;;;;10.72;100.00;99062.44;5012848;28;20013;-71
2024/01/02 11:52:43;;;;;;;;;;;;;;;10.69;100.00;99066.31;5017476;28;19920;-70
2024/01/02 11:55:12;;;;;;;;;;;;;;;10.66;100.00;99057.97;5022320;28;19921;-71
2024/01/02 11:57:50;;;;;;;;;;;;;;;10.64;100.00;99063.50;5011804;28;19921;-70
2024/01/02 12:00:21;;;;;;;;;;;;;;;10.63;100.00;99064.53;5009215;28;19975;-71
2024/01/02 12:03:01;;;;;;;;;;;;;;;10.59;100.00;99058.03;5018576;28;19932;-70
2024/01/02 12:05:52;;;;;;;;;;;;;;;10.58;100.00;99047.63;5013819;28;19959;-70
2024/01/02 12:08:22;;;;;;;;;;;;;;;10.50;100.00;99028.28;5015136;28;19929;-71
2024/01/02 12:10:49;;;;;;;;;;;;;;;10.52;100.00;99028.06;5012678;28;19921;-71
2024/01/02 12:13:33;;;;;;;;;;;;;;;10.50;100.00;99017.66;5013754;28;20397;-70
2024/01/02 12:16:03;;;;;;;;;;;;;;;10.43;100.00;99016.91;5015775;28;19922;-70
2024/01/02 12:18:32;;;;;;;;;;;;;;;10.43;100.00;99010.78;5009269;28;19928;-70
2024/01/02 12:21:01;;;;;;;;;;;;;;;10.34;100.00;99006.75;5015016;28;19976;-71
2024/01/02 12:23:27;;;;;;;;;;;;;;;10.28;100.00;98989.03;5014788;28;19917;-70
2024/01/02 12:25:55;;;;;;;;;;;;;;;10.19;100.00;98980.50;5012150;28;19936;-70
2024/01/02 12:28:22;;;;;;;;;;;;;;;10.18;100.00;98974.38;5018941;28;20360;-70
2024/01/02 12:30:47;;;;;;;;;;;;;;;10.12;100.00;98967.28;5013162;28;19921;-72
2024/01/02 12:33:15;;;;;;;;;;;;;;;10.04;100.00;98951.59;5011332;28;19921;-71
2024/01/02 12:35:40;;;;;;;;;;;;;;;10.01;100.00;98937.94;5015462;28;19963;-70
2024/01/02 12:38:21;;;;;;;;;;;;;;;10.00;100.00;98931.84;5011933;28;19918;-71
2024/01/02 12:40:47;;;;;;;;;;;;;;;9.99;100.00;98927.56;5012434;28;19960;-70
2024/01/02 12:43:17;;;;;;;;;;;;;;;9.97;100.00;98920.84;5012826;28;20027;-70